sensor_id;sensor_type;location;lat;lon;timestamp;temperature;humidity
3156;DHT22;1588;50.892;7.082;2023-10-19T00:02:37;11.20;99.90
3156;DHT22;1588;50.892;7.082;2023-10-19T00:07:40;11.20;99.90
3156;DHT22;1588;50.892;7.082;2023-10-19T00:12:44;11.20;99.90
3156;DHT22;1588;50.892;7.082;2023-10-19T00:17:53;11.20;99.90
3156;DHT22;1588;50.892;7.082;2023-10-19T00:22:56;11.30;99.90
3156;DHT22;1588;50.892;7.082;2023-10-19T00:28:01;11.20;99.90
3156;DHT22;1588;50.892;7.082;2023-10-19T00:33:05;11.20;99.90
3156;DHT22;1588;50.892;7.082;2023-10-19T00:38:17;11.20;99.90
3156;DHT22;1588;50.892;7.082;2023-10-19T00:43:40;11.30;99.90
3156;DHT22;1588;50.892;7.082;2023-10-19T00:48:48;11.40;99.90
3156;DHT22;1588;50.892;7.082;2023-10-19T00:53:51;11.40;99.90
3156;DHT22;1588;50.892;7.082;2023-10-19T00:58:56;11.50;99.90
3156;DHT22;1588;50.892;7.082;2023-10-19T01:04:01;11.50;99.90
3156;DHT22;1588;50.892;7.082;2023-10-19T01:09:05;11.60;99.90
3156;DHT22;1588;50.892;7.082;2023-10-19T01:14:20;11.60;99.90
3156;DHT22;1588;50.892;7.082;2023-10-19T01:19:25;11.70;99.90
3156;DHT22;1588;50.892;7.082;2023-10-19T01:24:29;11.70;99.90
3156;DHT22;1588;50.892;7.082;2023-10-19T01:29:41;11.70;99.90
3156;DHT22;1588;50.892;7.082;2023-10-19T01:34:44;11.80;99.90
3156;DHT22;1588;50.892;7.082;2023-10-19T01:39:47;11.80;99.90
3156;DHT22;1588;50.892;7.082;2023-10-19T01:44:50;11.80;99.90
3156;DHT22;1588;50.892;7.082;2023-10-19T01:49:52;11.80;99.90
3156;DHT22;1588;50.892;7.082;2023-10-19T01:54:56;11.80;99.90
3156;DHT22;1588;50.892;7.082;2023-10-19T02:00:09;11.90;99.90
3156;DHT22;1588;50.892;7.082;2023-10-19T02:05:18;11.90;99.90
3156;DHT22;1588;50.892;7.082;2023-10-19T02:10:24;12.00;99.90
3156;DHT22;1588;50.892;7.082;2023-10-19T02:15:33;12.10;99.90
3156;DHT22;1588;50.892;7.082;2023-10-19T02:20:47;12.10;99.90
3156;DHT22;1588;50.892;7.082;2023-10-19T02:25:54;12.10;99.90
3156;DHT22;1588;50.892;7.082;2023-10-19T02:30:58;12.20;99.90
3156;DHT22;1588;50.892;7.082;2023-10-19T02:36:12;12.20;99.90
3156;DHT22;1588;50.892;7.082;2023-10-19T02:41:18;12.30;99.90
3156;DHT22;1588;50.892;7.082;2023-10-19T02:46:21;12.20;99.90
3156;DHT22;1588;50.892;7.082;2023-10-19T02:51:24;12.20;99.90
3156;DHT22;1588;50.892;7.082;2023-10-19T02:56:28;12.20;99.90
3156;DHT22;1588;50.892;7.082;2023-10-19T03:01:32;12.30;99.90
3156;DHT22;1588;50.892;7.082;2023-10-19T03:06:35;12.30;99.90
3156;DHT22;1588;50.892;7.082;2023-10-19T03:11:39;12.30;99.90
3156;DHT22;1588;50.892;7.082;2023-10-19T03:16:42;12.30;99.90
3156;DHT22;1588;50.892;7.082;2023-10-19T03:21:46;12.30;99.90
3156;DHT22;1588;50.892;7.082;2023-10-19T03:26:51;12.30;99.90
3156;DHT22;1588;50.892;7.082;2023-10-19T03:31:55;12.40;99.90
3156;DHT22;1588;50.892;7.082;2023-10-19T03:36:57;12.40;99.90
3156;DHT22;1588;50.892;7.082;2023-10-19T03:42:07;12.40;99.90
3156;DHT22;1588;50.892;7.082;2023-10-19T03:47:16;12.20;99.90
3156;DHT22;1588;50.892;7.082;2023-10-19T03:52:21;12.30;99.90
3156;DHT22;1588;50.892;7.082;2023-10-19T03:57:25;12.30;99.90
3156;DHT22;1588;50.892;7.082;2023-10-19T04:02:30;12.20;99.90
3156;DHT22;1588;50.892;7.082;2023-10-19T04:07:38;12.20;99.90
3156;DHT22;1588;50.892;7.082;2023-10-19T04:12:43;12.10;99.90
3156;DHT22;1588;50.892;7.082;2023-10-19T04:17:47;12.10;99.90
3156;DHT22;1588;50.892;7.082;2023-10-19T04:22:50;12.20;99.90
3156;DHT22;1588;50.892;7.082;2023-10-19T04:27:53;12.20;99.90
3156;DHT22;1588;50.892;7.082;2023-10-19T04:32:58;12.10;99.90
3156;DHT22;1588;50.892;7.082;2023-10-19T04:38:04;12.30;99.90
3156;DHT22;1588;50.892;7.082;2023-10-19T04:43:09;12.30;99.90
3156;DHT22;1588;50.892;7.082;2023-10-19T04:48:12;12.30;99.90
3156;DHT22;1588;50.892;7.082;2023-10-19T04:53:14;12.30;99.90
3156;DHT22;1588;50.892;7.082;2023-10-19T04:58:18;12.40;99.90
3156;DHT22;1588;50.892;7.082;2023-10-19T05:03:20;12.40;99.90
3156;DHT22;1588;50.892;7.082;2023-10-19T05:08:23;12.40;99.90
3156;DHT22;1588;50.892;7.082;2023-10-19T05:13:27;12.30;99.90
3156;DHT22;1588;50.892;7.082;2023-10-19T05:18:31;12.30;99.90
3156;DHT22;1588;50.892;7.082;2023-10-19T05:23:33;12.40;99.90
3156;DHT22;1588;50.892;7.082;2023-10-19T05:28:37;12.40;99.90
3156;DHT22;1588;50.892;7.082;2023-10-19T05:33:39;12.50;99.90
3156;DHT22;1588;50.892;7.082;2023-10-19T05:38:41;12.60;99.90
3156;DHT22;1588;50.892;7.082;2023-10-19T05:43:45;12.60;99.90
3156;DHT22;1588;50.892;7.082;2023-10-19T05:48:48;12.50;99.90
3156;DHT22;1588;50.892;7.082;2023-10-19T05:53:51;12.60;99.90
3156;DHT22;1588;50.892;7.082;2023-10-19T05:58:55;12.60;99.90
3156;DHT22;1588;50.892;7.082;2023-10-19T06:03:57;12.60;99.90
3156;DHT22;1588;50.892;7.082;2023-10-19T06:09:00;12.60;99.90
3156;DHT22;1588;50.892;7.082;2023-10-19T06:14:05;12.70;99.90
3156;DHT22;1588;50.892;7.082;2023-10-19T06:19:08;12.70;99.90
3156;DHT22;1588;50.892;7.082;2023-10-19T06:24:10;12.80;99.90
3156;DHT22;1588;50.892;7.082;2023-10-19T06:29:16;12.80;99.90
3156;DHT22;1588;50.892;7.082;2023-10-19T06:34:19;12.90;99.90
3156;DHT22;1588;50.892;7.082;2023-10-19T06:39:25;12.90;99.90
3156;DHT22;1588;50.892;7.082;2023-10-19T06:44:28;12.90;99.90
3156;DHT22;1588;50.892;7.082;2023-10-19T06:49:30;13.10;99.90
3156;DHT22;1588;50.892;7.082;2023-10-19T06:54:33;13.10;99.90
3156;DHT22;1588;50.892;7.082;2023-10-19T06:59:37;13.30;99.90
3156;DHT22;1588;50.892;7.082;2023-10-19T07:04:40;13.30;99.90
3156;DHT22;1588;50.892;7.082;2023-10-19T07:09:42;13.30;99.90
3156;DHT22;1588;50.892;7.082;2023-10-19T07:14:45;13.40;99.90
3156;DHT22;1588;50.892;7.082;2023-10-19T07:19:48;13.40;99.90
3156;DHT22;1588;50.892;7.082;2023-10-19T07:24:50;13.50;99.90
3156;DHT22;1588;50.892;7.082;2023-10-19T07:29:54;13.60;99.90
3156;DHT22;1588;50.892;7.082;2023-10-19T07:34:57;13.70;99.90
3156;DHT22;1588;50.892;7.082;2023-10-19T07:40:00;13.80;99.90
3156;DHT22;1588;50.892;7.082;2023-10-19T07:45:04;13.80;99.90
3156;DHT22;1588;50.892;7.082;2023-10-19T07:50:09;13.90;99.90
3156;DHT22;1588;50.892;7.082;2023-10-19T07:55:13;13.90;99.90
3156;DHT22;1588;50.892;7.082;2023-10-19T08:00:18;14.00;99.90
3156;DHT22;1588;50.892;7.082;2023-10-19T08:05:21;14.20;99.90
3156;DHT22;1588;50.892;7.082;2023-10-19T08:10:23;14.30;99.90
3156;DHT22;1588;50.892;7.082;2023-10-19T08:15:29;14.40;99.90
3156;DHT22;1588;50.892;7.082;2023-10-19T08:20:31;14.60;99.90
3156;DHT22;1588;50.892;7.082;2023-10-19T08:25:38;14.80;99.90
3156;DHT22;1588;50.892;7.082;2023-10-19T08:30:41;15.00;99.90
3156;DHT22;1588;50.892;7.082;2023-10-19T08:35:46;15.40;99.90
3156;DHT22;1588;50.892;7.082;2023-10-19T08:40:49;16.50;99.90
3156;DHT22;1588;50.892;7.082;2023-10-19T08:45:56;17.50;99.90
3156;DHT22;1588;50.892;7.082;2023-10-19T08:50:58;19.50;99.90
3156;DHT22;1588;50.892;7.082;2023-10-19T08:56:02;20.70;99.90
3156;DHT22;1588;50.892;7.082;2023-10-19T09:01:09;22.90;99.90
3156;DHT22;1588;50.892;7.082;2023-10-19T09:06:12;23.50;99.90
3156;DHT22;1588;50.892;7.082;2023-10-19T09:11:16;23.30;99.90
3156;DHT22;1588;50.892;7.082;2023-10-19T09:16:24;22.20;99.90
3156;DHT22;1588;50.892;7.082;2023-10-19T09:21:27;21.10;99.90
3156;DHT22;1588;50.892;7.082;2023-10-19T09:26:30;20.20;99.90
3156;DHT22;1588;50.892;7.082;2023-10-19T09:31:37;19.30;99.90
3156;DHT22;1588;50.892;7.082;2023-10-19T09:36:42;19.10;99.90
3156;DHT22;1588;50.892;7.082;2023-10-19T09:41:47;20.60;99.90
3156;DHT22;1588;50.892;7.082;2023-10-19T09:47:10;21.60;99.90
3156;DHT22;1588;50.892;7.082;2023-10-19T09:52:13;22.60;99.90
3156;DHT22;1588;50.892;7.082;2023-10-19T09:57:21;23.60;99.90
3156;DHT22;1588;50.892;7.082;2023-10-19T10:02:27;24.80;99.90
3156;DHT22;1588;50.892;7.082;2023-10-19T10:07:33;25.50;99.90
3156;DHT22;1588;50.892;7.082;2023-10-19T10:12:36;24.40;99.90
3156;DHT22;1588;50.892;7.082;2023-10-19T10:17:39;24.20;99.90
3156;DHT22;1588;50.892;7.082;2023-10-19T10:22:42;23.10;99.90
3156;DHT22;1588;50.892;7.082;2023-10-19T10:27:50;22.20;99.90
3156;DHT22;1588;50.892;7.082;2023-10-19T10:32:57;22.60;99.90
3156;DHT22;1588;50.892;7.082;2023-10-19T10:38:00;23.00;99.90
3156;DHT22;1588;50.892;7.082;2023-10-19T10:43:06;22.70;99.90
3156;DHT22;1588;50.892;7.082;2023-10-19T10:48:14;22.00;99.90
3156;DHT22;1588;50.892;7.082;2023-10-19T10:53:20;20.90;99.90
3156;DHT22;1588;50.892;7.082;2023-10-19T10:58:39;20.20;99.90
3156;DHT22;1588;50.892;7.082;2023-10-19T11:04:11;19.80;99.90
3156;DHT22;1588;50.892;7.082;2023-10-19T11:09:18;19.50;99.90
3156;DHT22;1588;50.892;7.082;2023-10-19T11:15:02;19.30;99.90
3156;DHT22;1588;50.892;7.082;2023-10-19T11:27:38;19.20;99.90
3156;DHT22;1588;50.892;7.082;2023-10-19T11:32:51;19.20;99.90
3156;DHT22;1588;50.892;7.082;2023-10-19T11:38:00;19.10;99.90
3156;DHT22;1588;50.892;7.082;2023-10-19T11:43:08;19.00;99.90
3156;DHT22;1588;50.892;7.082;2023-10-19T11:48:25;19.00;99.90
3156;DHT22;1588;50.892;7.082;2023-10-19T11:53:45;18.80;99.90
3156;DHT22;1588;50.892;7.082;2023-10-19T11:59:23;18.80;99.90
3156;DHT22;1588;50.892;7.082;2023-10-19T12:05:16;18.60;99.90
3156;DHT22;1588;50.892;7.082;2023-10-19T12:17:27;18.30;99.90
3156;DHT22;1588;50.892;7.082;2023-10-19T12:23:08;18.00;99.90
3156;DHT22;1588;50.892;7.082;2023-10-19T12:35:13;18.00;99.90
3156;DHT22;1588;50.892;7.082;2023-10-19T12:40:25;18.10;99.90
3156;DHT22;1588;50.892;7.082;2023-10-19T12:45:32;18.20;99.90
3156;DHT22;1588;50.892;7.082;2023-10-19T12:50:42;18.10;99.90
3156;DHT22;1588;50.892;7.082;2023-10-19T12:56:46;18.10;99.90
3156;DHT22;1588;50.892;7.082;2023-10-19T13:20:35;18.00;99.90
3156;DHT22;1588;50.892;7.082;2023-10-19T13:26:23;18.00;99.90
3156;DHT22;1588;50.892;7.082;2023-10-19T13:31:59;18.00;99.90
3156;DHT22;1588;50.892;7.082;2023-10-19T13:37:24;17.80;99.90
3156;DHT22;1588;50.892;7.082;2023-10-19T13:48:00;17.40;99.90
3156;DHT22;1588;50.892;7.082;2023-10-19T13:53:05;17.20;99.90
3156;DHT22;1588;50.892;7.082;2023-10-19T13:58:07;17.10;99.90
3156;DHT22;1588;50.892;7.082;2023-10-19T14:03:10;17.00;99.90
3156;DHT22;1588;50.892;7.082;2023-10-19T14:08:16;16.90;99.90
3156;DHT22;1588;50.892;7.082;2023-10-19T14:13:19;16.80;99.90
3156;DHT22;1588;50.892;7.082;2023-10-19T14:18:21;16.80;99.90
3156;DHT22;1588;50.892;7.082;2023-10-19T14:23:25;16.80;99.90
3156;DHT22;1588;50.892;7.082;2023-10-19T14:28:28;16.80;99.90
3156;DHT22;1588;50.892;7.082;2023-10-19T14:33:32;16.70;99.90
3156;DHT22;1588;50.892;7.082;2023-10-19T14:38:38;16.70;99.90
3156;DHT22;1588;50.892;7.082;2023-10-19T14:43:40;16.60;99.90
3156;DHT22;1588;50.892;7.082;2023-10-19T14:48:44;16.60;99.90
3156;DHT22;1588;50.892;7.082;2023-10-19T14:53:49;16.50;99.90
3156;DHT22;1588;50.892;7.082;2023-10-19T14:58:51;16.50;99.90
3156;DHT22;1588;50.892;7.082;2023-10-19T15:03:55;16.50;99.90
3156;DHT22;1588;50.892;7.082;2023-10-19T15:08:58;16.60;99.90
3156;DHT22;1588;50.892;7.082;2023-10-19T15:14:01;16.60;99.90
3156;DHT22;1588;50.892;7.082;2023-10-19T15:19:04;16.50;99.90
3156;DHT22;1588;50.892;7.082;2023-10-19T15:24:08;16.60;99.90
3156;DHT22;1588;50.892;7.082;2023-10-19T15:29:10;16.60;99.90
3156;DHT22;1588;50.892;7.082;2023-10-19T15:34:13;16.60;99.90
3156;DHT22;1588;50.892;7.082;2023-10-19T15:39:18;16.60;99.90
3156;DHT22;1588;50.892;7.082;2023-10-19T15:44:20;16.50;99.90
3156;DHT22;1588;50.892;7.082;2023-10-19T15:49:23;16.60;99.90
3156;DHT22;1588;50.892;7.082;2023-10-19T15:54:27;16.60;99.90
3156;DHT22;1588;50.892;7.082;2023-10-19T15:59:29;16.60;99.90
3156;DHT22;1588;50.892;7.082;2023-10-19T16:04:31;16.60;99.90
3156;DHT22;1588;50.892;7.082;2023-10-19T16:09:35;16.50;99.90
3156;DHT22;1588;50.892;7.082;2023-10-19T16:14:38;16.40;99.90
3156;DHT22;1588;50.892;7.082;2023-10-19T16:19:41;16.20;99.90
3156;DHT22;1588;50.892;7.082;2023-10-19T16:24:45;16.20;99.90
3156;DHT22;1588;50.892;7.082;2023-10-19T16:29:47;16.20;99.90
3156;DHT22;1588;50.892;7.082;2023-10-19T16:34:50;16.10;99.90
3156;DHT22;1588;50.892;7.082;2023-10-19T16:39:53;16.00;99.90
3156;DHT22;1588;50.892;7.082;2023-10-19T16:44:56;15.90;99.90
3156;DHT22;1588;50.892;7.082;2023-10-19T16:49:59;15.80;99.90
3156;DHT22;1588;50.892;7.082;2023-10-19T16:55:03;15.70;99.90
3156;DHT22;1588;50.892;7.082;2023-10-19T17:00:07;15.60;99.90
3156;DHT22;1588;50.892;7.082;2023-10-19T17:05:14;15.50;99.90
3156;DHT22;1588;50.892;7.082;2023-10-19T17:10:18;15.40;99.90
3156;DHT22;1588;50.892;7.082;2023-10-19T17:15:21;15.30;99.90
3156;DHT22;1588;50.892;7.082;2023-10-19T17:20:24;15.30;99.90
3156;DHT22;1588;50.892;7.082;2023-10-19T17:25:31;15.30;99.90
3156;DHT22;1588;50.892;7.082;2023-10-19T17:30:33;15.10;99.90
3156;DHT22;1588;50.892;7.082;2023-10-19T17:35:37;15.20;99.90
3156;DHT22;1588;50.892;7.082;2023-10-19T17:40:41;15.20;99.90
3156;DHT22;1588;50.892;7.082;2023-10-19T17:45:45;15.20;99.90
3156;DHT22;1588;50.892;7.082;2023-10-19T17:50:48;15.10;99.90
3156;DHT22;1588;50.892;7.082;2023-10-19T17:55:52;15.10;99.90
3156;DHT22;1588;50.892;7.082;2023-10-19T18:00:57;15.10;99.90
3156;DHT22;1588;50.892;7.082;2023-10-19T18:06:01;15.10;99.90
3156;DHT22;1588;50.892;7.082;2023-10-19T18:11:10;15.00;99.90
3156;DHT22;1588;50.892;7.082;2023-10-19T18:16:13;14.90;99.90
3156;DHT22;1588;50.892;7.082;2023-10-19T18:21:16;14.90;99.90
3156;DHT22;1588;50.892;7.082;2023-10-19T18:26:21;14.90;99.90
3156;DHT22;1588;50.892;7.082;2023-10-19T18:31:23;14.80;99.90
3156;DHT22;1588;50.892;7.082;2023-10-19T18:36:26;14.80;99.90
3156;DHT22;1588;50.892;7.082;2023-10-19T18:41:32;14.80;99.90
3156;DHT22;1588;50.892;7.082;2023-10-19T18:46:34;14.80;99.90
3156;DHT22;1588;50.892;7.082;2023-10-19T18:51:37;14.80;99.90
3156;DHT22;1588;50.892;7.082;2023-10-19T18:56:41;14.70;99.90
3156;DHT22;1588;50.892;7.082;2023-10-19T19:01:43;14.80;99.90
3156;DHT22;1588;50.892;7.082;2023-10-19T19:06:46;14.80;99.90
3156;DHT22;1588;50.892;7.082;2023-10-19T19:11:53;14.90;99.90
3156;DHT22;1588;50.892;7.082;2023-10-19T19:16:55;14.90;99.90
3156;DHT22;1588;50.892;7.082;2023-10-19T19:22:00;15.00;99.90
3156;DHT22;1588;50.892;7.082;2023-10-19T19:27:04;14.90;99.90
3156;DHT22;1588;50.892;7.082;2023-10-19T19:32:06;14.90;99.90
3156;DHT22;1588;50.892;7.082;2023-10-19T19:37:09;14.90;99.90
3156;DHT22;1588;50.892;7.082;2023-10-19T19:42:12;14.90;99.90
3156;DHT22;1588;50.892;7.082;2023-10-19T19:47:15;14.90;99.90
3156;DHT22;1588;50.892;7.082;2023-10-19T19:52:17;14.90;99.90
3156;DHT22;1588;50.892;7.082;2023-10-19T19:57:21;14.90;99.90
3156;DHT22;1588;50.892;7.082;2023-10-19T20:02:23;14.90;99.90
3156;DHT22;1588;50.892;7.082;2023-10-19T20:07:26;14.90;99.90
3156;DHT22;1588;50.892;7.082;2023-10-19T20:12:30;14.80;99.90
3156;DHT22;1588;50.892;7.082;2023-10-19T20:17:32;14.80;99.90
3156;DHT22;1588;50.892;7.082;2023-10-19T20:22:35;14.80;99.90
3156;DHT22;1588;50.892;7.082;2023-10-19T20:27:39;14.80;99.90
3156;DHT22;1588;50.892;7.082;2023-10-19T20:32:43;14.70;99.90
3156;DHT22;1588;50.892;7.082;2023-10-19T20:37:46;14.70;99.90
3156;DHT22;1588;50.892;7.082;2023-10-19T20:42:50;14.70;99.90
3156;DHT22;1588;50.892;7.082;2023-10-19T20:47:54;14.60;99.90
3156;DHT22;1588;50.892;7.082;2023-10-19T20:52:57;14.60;99.90
3156;DHT22;1588;50.892;7.082;2023-10-19T20:58:01;14.50;99.90
3156;DHT22;1588;50.892;7.082;2023-10-19T21:03:04;14.60;99.90
3156;DHT22;1588;50.892;7.082;2023-10-19T21:08:06;14.60;99.90
3156;DHT22;1588;50.892;7.082;2023-10-19T21:13:10;14.50;99.90
3156;DHT22;1588;50.892;7.082;2023-10-19T21:18:14;14.50;99.90
3156;DHT22;1588;50.892;7.082;2023-10-19T21:23:17;14.60;99.90
3156;DHT22;1588;50.892;7.082;2023-10-19T21:28:20;14.60;99.90
3156;DHT22;1588;50.892;7.082;2023-10-19T21:33:25;14.50;99.90
3156;DHT22;1588;50.892;7.082;2023-10-19T21:38:27;14.40;99.90
3156;DHT22;1588;50.892;7.082;2023-10-19T21:43:32;14.40;99.90
3156;DHT22;1588;50.892;7.082;2023-10-19T21:48:34;14.40;99.90
3156;DHT22;1588;50.892;7.082;2023-10-19T21:53:37;14.50;99.90
3156;DHT22;1588;50.892;7.082;2023-10-19T21:58:40;14.70;99.90
3156;DHT22;1588;50.892;7.082;2023-10-19T22:03:43;14.70;99.90
3156;DHT22;1588;50.892;7.082;2023-10-19T22:08:46;14.70;99.90
3156;DHT22;1588;50.892;7.082;2023-10-19T22:13:50;14.80;99.90
3156;DHT22;1588;50.892;7.082;2023-10-19T22:18:52;14.80;99.90
3156;DHT22;1588;50.892;7.082;2023-10-19T22:23:55;14.90;99.90
3156;DHT22;1588;50.892;7.082;2023-10-19T22:28:58;14.90;99.90
3156;DHT22;1588;50.892;7.082;2023-10-19T22:34:01;14.90;99.90
3156;DHT22;1588;50.892;7.082;2023-10-19T22:39:04;14.90;99.90
3156;DHT22;1588;50.892;7.082;2023-10-19T22:44:07;14.90;99.90
3156;DHT22;1588;50.892;7.082;2023-10-19T22:49:10;14.90;99.90
3156;DHT22;1588;50.892;7.082;2023-10-19T22:54:12;14.90;99.90
3156;DHT22;1588;50.892;7.082;2023-10-19T22:59:16;14.90;99.90
3156;DHT22;1588;50.892;7.082;2023-10-19T23:04:18;14.90;99.90
3156;DHT22;1588;50.892;7.082;2023-10-19T23:09:21;14.80;99.90
3156;DHT22;1588;50.892;7.082;2023-10-19T23:14:30;14.90;99.90
3156;DHT22;1588;50.892;7.082;2023-10-19T23:19:32;14.80;99.90
3156;DHT22;1588;50.892;7.082;2023-10-19T23:24:39;15.00;99.90
3156;DHT22;1588;50.892;7.082;2023-10-19T23:29:44;15.00;99.90
3156;DHT22;1588;50.892;7.082;2023-10-19T23:34:47;15.00;99.90
3156;DHT22;1588;50.892;7.082;2023-10-19T23:39:49;15.00;99.90
3156;DHT22;1588;50.892;7.082;2023-10-19T23:44:53;15.10;99.90
3156;DHT22;1588;50.892;7.082;2023-10-19T23:49:55;15.20;99.90
3156;DHT22;1588;50.892;7.082;2023-10-19T23:54:57;15.10;99.90
